Time;durP1;ratioP1;P1;durP2;ratioP2;P2;SDS_P1;SDS_P2;PMS_P1;PMS_P2;Temp;Humidity;BMP_temperature;BMP_pressure;BME280_temperature;BME280_humidity;BME280_pressure;Samples;Min_cycle;Max_cycle;Signal;HPM_P1;HPM_P2
2022/08/09 00:00:08;;;;;;;11.57;5.32;;;14.50;99.90;;;;;;5016446;28;20499;-92
2022/08/09 00:02:34;;;;;;;12.20;5.38;;;14.50;99.90;;;;;;5034070;28;20053;-92
2022/08/09 00:05:00;;;;;;;13.40;5.70;;;14.40;99.90;;;;;;5033211;28;20096;-92
2022/08/09 00:07:26;;;;;;;11.60;5.95;;;14.80;99.90;;;;;;5015742;28;20045;-92
2022/08/09 00:09:51;;;;;;;14.23;5.93;;;14.40;99.90;;;;;;5015676;28;20059;-92
2022/08/09 00:12:17;;;;;;;11.73;5.68;;;14.40;99.90;;;;;;5015540;28;20493;-92
2022/08/09 00:14:43;;;;;;;12.68;6.15;;;14.40;99.90;;;;;;5029457;28;20029;-93
2022/08/09 00:17:08;;;;;;;13.20;5.90;;;14.40;99.90;;;;;;5031007;28;20049;-92
2022/08/09 00:19:34;;;;;;;13.93;5.63;;;14.30;99.90;;;;;;5017672;28;20046;-92
2022/08/09 00:22:00;;;;;;;14.05;6.30;;;14.30;99.90;;;;;;5015634;28;20437;-92
2022/08/09 00:24:26;;;;;;;12.73;6.00;;;14.30;99.90;;;;;;5032865;28;20330;-91
2022/08/09 00:26:52;;;;;;;12.85;6.03;;;14.30;99.90;;;;;;5015647;28;20088;-92
2022/08/09 00:29:17;;;;;;;12.25;5.78;;;14.70;99.90;;;;;;5033338;28;20056;-92
2022/08/09 00:31:43;;;;;;;13.07;6.10;;;14.20;99.90;;;;;;5014605;28;20050;-92
2022/08/09 00:34:08;;;;;;;13.50;6.28;;;14.20;99.90;;;;;;5014528;28;20056;-92
2022/08/09 00:36:34;;;;;;;11.43;5.72;;;14.20;99.90;;;;;;5015904;28;20083;-92
2022/08/09 00:39:01;;;;;;;12.10;5.72;;;14.10;99.90;;;;;;5014777;28;20049;-91
2022/08/09 00:41:26;;;;;;;17.17;6.32;;;14.10;99.90;;;;;;5033605;28;20042;-92
2022/08/09 00:43:52;;;;;;;15.27;6.50;;;14.10;99.90;;;;;;5033052;28;20103;-91
2022/08/09 00:46:18;;;;;;;11.07;5.85;;;14.10;99.90;;;;;;5014960;28;20211;-91
2022/08/09 00:48:44;;;;;;;14.55;6.30;;;14.10;99.90;;;;;;5015216;28;20037;-91
2022/08/09 00:51:10;;;;;;;13.93;5.88;;;14.00;99.90;;;;;;5033074;28;20046;-91
2022/08/09 00:53:37;;;;;;;13.55;6.10;;;14.00;99.90;;;;;;5014646;28;20044;-92
2022/08/09 00:56:06;;;;;;;13.35;6.32;;;14.00;99.90;;;;;;5015293;28;20771;-91
2022/08/09 00:58:34;;;;;;;14.20;6.50;;;14.00;99.90;;;;;;5015533;28;20053;-91
2022/08/09 01:01:02;;;;;;;13.13;6.60;;;13.90;99.90;;;;;;5014030;28;20055;-92
2022/08/09 01:03:40;;;;;;;15.85;6.70;;;13.90;99.90;;;;;;5032938;28;20116;-92
2022/08/09 01:06:34;;;;;;;14.63;6.88;;;13.90;99.90;;;;;;5015006;28;20135;-93
2022/08/09 01:09:15;;;;;;;15.55;7.00;;;13.90;99.90;;;;;;5020466;28;20045;-91
2022/08/09 01:11:44;;;;;;;12.13;6.50;;;13.80;99.90;;;;;;5015545;28;20045;-92
2022/08/09 01:14:21;;;;;;;14.05;6.88;;;14.30;99.90;;;;;;5039356;28;20045;-91
2022/08/09 01:16:51;;;;;;;13.02;6.80;;;13.80;99.90;;;;;;5051233;28;20049;-92
2022/08/09 01:19:38;;;;;;;14.60;6.93;;;13.80;99.90;;;;;;5028955;28;20478;-92
2022/08/09 01:22:23;;;;;;;16.27;7.07;;;13.80;99.90;;;;;;5014785;28;20479;-92
2022/08/09 01:25:06;;;;;;;15.10;7.22;;;13.80;99.90;;;;;;5033011;28;20048;-91
2022/08/09 01:27:34;;;;;;;13.80;6.65;;;13.70;99.90;;;;;;5014080;28;20050;-92
2022/08/09 01:30:04;;;;;;;14.23;7.00;;;13.70;99.90;;;;;;5014191;28;20061;-92
2022/08/09 01:32:37;;;;;;;15.07;7.38;;;13.70;99.90;;;;;;5032424;28;20046;-92
2022/08/09 01:35:08;;;;;;;16.50;7.55;;;14.00;99.90;;;;;;5013633;28;20068;-92
2022/08/09 01:37:37;;;;;;;16.17;7.35;;;13.70;99.90;;;;;;5014789;28;20049;-92
2022/08/09 01:40:05;;;;;;;16.65;6.63;;;13.70;99.90;;;;;;5014613;28;20498;-92
2022/08/09 01:42:33;;;;;;;15.43;6.82;;;13.60;99.90;;;;;;5036808;28;20043;-91
2022/08/09 01:45:00;;;;;;;15.57;7.28;;;13.60;99.90;;;;;;5015100;28;20038;-91
2022/08/09 01:47:27;;;;;;;16.10;7.40;;;13.60;99.90;;;;;;5036979;28;20095;-92
2022/08/09 01:49:56;;;;;;;14.85;6.97;;;13.60;99.90;;;;;;5036251;28;20049;-90
2022/08/09 01:52:23;;;;;;;17.17;7.40;;;13.60;99.90;;;;;;5044097;28;20057;-91
2022/08/09 01:54:54;;;;;;;14.77;7.00;;;13.50;99.90;;;;;;5036382;28;20049;-91
2022/08/09 01:57:25;;;;;;;13.63;7.40;;;13.50;99.90;;;;;;5018233;28;20068;-91
2022/08/09 01:59:54;;;;;;;15.27;7.90;;;13.50;99.90;;;;;;5018789;28;20057;-93
2022/08/09 02:02:24;;;;;;;15.35;7.88;;;13.50;99.90;;;;;;5034777;28;20711;-92
2022/08/09 02:04:51;;;;;;;15.38;7.45;;;13.50;99.90;;;;;;5017181;28;20489;-92
2022/08/09 02:07:19;;;;;;;15.40;7.18;;;13.50;99.90;;;;;;5036150;28;20116;-92
2022/08/09 02:10:08;;;;;;;16.00;7.63;;;13.50;99.90;;;;;;5035258;28;20051;-92
2022/08/09 02:12:35;;;;;;;18.73;8.25;;;13.50;99.90;;;;;;5017935;28;20404;-92
2022/08/09 02:15:02;;;;;;;15.05;8.07;;;13.40;99.90;;;;;;5017986;28;20037;-91
2022/08/09 02:17:30;;;;;;;16.45;7.80;;;13.40;99.90;;;;;;5035252;28;20080;-91
2022/08/09 02:19:56;;;;;;;17.60;7.72;;;13.40;99.90;;;;;;5035743;28;20042;-91
2022/08/09 02:22:27;;;;;;;14.32;7.72;;;13.40;99.90;;;;;;5018087;28;20095;-91
2022/08/09 02:24:57;;;;;;;17.65;8.07;;;13.40;99.90;;;;;;5035051;28;20080;-92
2022/08/09 02:27:25;;;;;;;16.48;8.27;;;13.40;99.90;;;;;;5041202;28;20042;-91
2022/08/09 02:29:54;;;;;;;18.52;8.20;;;13.40;99.90;;;;;;5018138;28;20470;-91
2022/08/09 02:32:22;;;;;;;16.77;8.60;;;13.40;99.90;;;;;;5016642;28;20057;-91
2022/08/09 02:34:56;;;;;;;18.30;8.40;;;13.30;99.90;;;;;;5017571;28;20486;-91
2022/08/09 02:37:27;;;;;;;16.90;8.27;;;13.60;99.90;;;;;;5035539;28;20532;-92
2022/08/09 02:40:03;;;;;;;18.63;8.38;;;13.30;99.90;;;;;;5016862;28;20093;-92
2022/08/09 02:42:39;;;;;;;19.52;8.02;;;13.30;99.90;;;;;;5017741;28;20099;-91
2022/08/09 02:45:20;;;;;;;17.98;8.25;;;13.30;99.90;;;;;;5034590;28;20045;-92
2022/08/09 02:47:47;;;;;;;16.90;8.32;;;13.50;99.90;;;;;;5035246;28;20041;-92
2022/08/09 02:50:22;;;;;;;16.25;8.25;;;13.20;99.90;;;;;;5017782;28;20045;-91
2022/08/09 02:52:55;;;;;;;17.38;7.80;;;13.20;99.90;;;;;;5016262;28;20085;-89
2022/08/09 02:55:23;;;;;;;16.55;8.27;;;13.20;99.90;;;;;;5017293;28;20167;-88
2022/08/09 02:57:50;;;;;;;18.75;8.55;;;13.20;99.90;;;;;;5015905;28;20040;-89
2022/08/09 03:00:16;;;;;;;18.42;8.35;;;13.20;99.90;;;;;;5034655;28;20048;-89
2022/08/09 03:02:47;;;;;;;17.83;8.38;;;13.10;99.90;;;;;;5017146;28;20060;-90
2022/08/09 03:05:14;;;;;;;17.35;8.10;;;13.20;99.90;;;;;;5034913;28;20440;-89
2022/08/09 03:07:40;;;;;;;16.83;8.07;;;13.10;99.90;;;;;;5016926;28;20052;-90
2022/08/09 03:10:08;;;;;;;17.50;8.43;;;13.10;99.90;;;;;;5017029;28;20049;-91
2022/08/09 03:12:36;;;;;;;19.30;8.25;;;13.10;99.90;;;;;;5016829;28;20096;-91
2022/08/09 03:15:04;;;;;;;19.15;8.60;;;13.10;99.90;;;;;;5033981;28;20056;-91
2022/08/09 03:17:31;;;;;;;18.73;7.95;;;13.10;99.90;;;;;;5034690;28;20045;-91
2022/08/09 03:19:59;;;;;;;15.93;8.20;;;13.10;99.90;;;;;;5016004;28;20536;-90
2022/08/09 03:22:28;;;;;;;17.65;7.95;;;13.10;99.90;;;;;;5016660;28;20072;-93
2022/08/09 03:24:53;;;;;;;17.98;8.60;;;13.00;99.90;;;;;;5037389;28;20036;-92
2022/08/09 03:27:20;;;;;;;17.35;8.15;;;13.00;99.90;;;;;;5027398;28;20529;-91
2022/08/09 03:29:46;;;;;;;16.65;8.35;;;13.10;99.90;;;;;;5016845;28;20037;-91
2022/08/09 03:32:13;;;;;;;17.80;7.38;;;13.00;99.90;;;;;;5016395;28;20516;-91
2022/08/09 03:34:38;;;;;;;17.55;7.68;;;13.00;99.90;;;;;;5033833;28;20096;-92
2022/08/09 03:37:04;;;;;;;20.33;7.55;;;13.20;99.90;;;;;;5035417;28;20045;-92
2022/08/09 03:39:30;;;;;;;15.77;6.85;;;13.50;99.90;;;;;;5038668;28;20042;-92
2022/08/09 03:41:55;;;;;;;18.10;7.35;;;13.10;99.90;;;;;;5016265;28;20084;-93
2022/08/09 03:44:23;;;;;;;16.63;6.97;;;13.10;99.90;;;;;;5017528;28;20052;-92
2022/08/09 03:46:49;;;;;;;16.15;6.45;;;13.10;99.90;;;;;;5025252;28;20064;-91
2022/08/09 03:49:16;;;;;;;17.02;6.75;;;13.10;99.90;;;;;;5018604;28;20041;-92
2022/08/09 03:51:45;;;;;;;13.90;5.88;;;13.00;99.90;;;;;;5034513;28;20157;-91
2022/08/09 03:54:12;;;;;;;16.95;7.40;;;13.00;99.90;;;;;;5016103;28;20056;-91
2022/08/09 03:56:43;;;;;;;16.27;6.75;;;13.10;99.90;;;;;;5033618;28;20042;-91
2022/08/09 03:59:09;;;;;;;14.85;6.82;;;13.40;99.90;;;;;;5033991;28;20077;-92
2022/08/09 04:01:37;;;;;;;16.60;6.68;;;13.00;99.90;;;;;;5027627;28;20030;-92
2022/08/09 04:04:04;;;;;;;14.38;6.63;;;13.00;99.90;;;;;;5012498;28;20559;-92
2022/08/09 04:06:29;;;;;;;15.80;6.35;;;13.00;99.90;;;;;;5015378;28;20037;-93
2022/08/09 04:08:55;;;;;;;14.20;6.60;;;13.00;99.90;;;;;;5015293;28;20408;-93
2022/08/09 04:11:20;;;;;;;17.15;6.95;;;13.00;99.90;;;;;;5022884;28;20026;-91
2022/08/09 04:13:46;;;;;;;15.82;6.65;;;13.00;99.90;;;;;;5041519;28;20064;-93
2022/08/09 04:16:13;;;;;;;14.63;5.80;;;13.00;99.90;;;;;;5029697;28;20077;-91
2022/08/09 04:18:39;;;;;;;13.55;6.43;;;13.00;99.90;;;;;;5024989;28;20060;-92
2022/08/09 04:21:05;;;;;;;15.60;6.07;;;13.00;99.90;;;;;;5033424;28;20522;-92
2022/08/09 04:23:31;;;;;;;17.30;6.40;;;13.30;99.90;;;;;;5015588;28;20049;-92
2022/08/09 04:25:56;;;;;;;15.80;6.40;;;13.00;99.90;;;;;;5016924;28;20057;-92
2022/08/09 04:28:24;;;;;;;15.00;6.85;;;13.00;99.90;;;;;;5016910;28;20044;-92
2022/08/09 04:30:49;;;;;;;14.15;5.75;;;13.00;99.90;;;;;;5025190;28;20053;-91
2022/08/09 04:33:16;;;;;;;15.35;6.18;;;13.00;99.90;;;;;;4995835;28;20050;-92
2022/08/09 04:35:41;;;;;;;13.93;5.90;;;13.00;99.90;;;;;;5013929;28;20060;-92
2022/08/09 04:38:07;;;;;;;14.00;6.28;;;13.00;99.90;;;;;;5012783;28;20050;-92
2022/08/09 04:40:48;;;;;;;15.52;5.72;;;13.00;99.90;;;;;;5013450;28;20042;-92
2022/08/09 04:43:15;;;;;;;14.73;6.15;;;13.10;99.90;;;;;;4996260;28;20441;-93
2022/08/09 04:45:41;;;;;;;13.95;5.70;;;13.00;99.90;;;;;;5013080;28;20038;-92
2022/08/09 04:48:07;;;;;;;14.60;5.13;;;13.10;99.90;;;;;;4995399;28;20108;-91
2022/08/09 04:50:33;;;;;;;15.15;6.35;;;13.10;99.90;;;;;;4995963;28;20050;-92
2022/08/09 04:52:59;;;;;;;13.38;5.55;;;13.10;99.90;;;;;;5013272;28;20077;-92
2022/08/09 04:55:25;;;;;;;14.77;6.18;;;13.20;99.90;;;;;;5030791;28;20049;-93
2022/08/09 04:57:51;;;;;;;14.52;6.00;;;13.20;99.90;;;;;;5021306;28;20049;-91
2022/08/09 05:00:18;;;;;;;13.52;5.90;;;13.20;99.90;;;;;;5015505;28;20049;-92
2022/08/09 05:02:44;;;;;;;14.30;6.30;;;13.30;99.90;;;;;;5032792;28;20046;-92
2022/08/09 05:05:10;;;;;;;14.45;6.47;;;13.30;99.90;;;;;;5016539;28;20049;-93
2022/08/09 05:07:36;;;;;;;13.65;5.95;;;13.30;99.90;;;;;;5001589;28;20060;-93
2022/08/09 05:10:02;;;;;;;13.05;6.25;;;13.30;99.90;;;;;;5014430;28;20054;-91
2022/08/09 05:12:28;;;;;;;14.18;5.97;;;13.40;99.90;;;;;;5013151;28;20046;-91
2022/08/09 05:14:54;;;;;;;15.60;6.35;;;13.40;99.90;;;;;;4994952;28;20045;-92
2022/08/09 05:17:20;;;;;;;15.90;6.22;;;13.40;99.90;;;;;;5013353;28;20054;-93
2022/08/09 05:19:45;;;;;;;13.63;6.18;;;13.50;99.90;;;;;;5011525;28;20398;-93
2022/08/09 05:22:11;;;;;;;16.40;6.30;;;13.50;99.90;;;;;;5013074;28;20197;-92
2022/08/09 05:24:37;;;;;;;14.95;6.30;;;13.60;99.90;;;;;;4995562;28;20444;-93
2022/08/09 05:27:03;;;;;;;13.98;5.60;;;13.50;99.90;;;;;;5011751;28;20050;-92
2022/08/09 05:29:28;;;;;;;13.57;6.05;;;13.70;99.90;;;;;;5016600;28;20121;-92
2022/08/09 05:31:58;;;;;;;13.75;4.95;;;13.70;99.90;;;;;;4999476;28;20057;-92
2022/08/09 05:34:33;;;;;;;14.07;5.68;;;13.60;99.90;;;;;;5013220;28;20096;-87
2022/08/09 05:37:04;;;;;;;12.63;5.50;;;13.70;99.90;;;;;;4994564;28;20045;-86
2022/08/09 05:39:30;;;;;;;11.30;5.30;;;13.80;99.90;;;;;;4994901;28;20096;-86
2022/08/09 05:41:57;;;;;;;14.13;5.60;;;13.90;99.90;;;;;;5011705;28;20045;-85
2022/08/09 05:44:22;;;;;;;11.15;5.10;;;14.00;99.90;;;;;;5028066;28;20124;-84
2022/08/09 05:46:48;;;;;;;11.40;6.35;;;14.00;99.90;;;;;;5011979;28;20074;-84
2022/08/09 05:49:13;;;;;;;13.88;5.43;;;14.10;99.90;;;;;;5011685;28;20092;-82
2022/08/09 05:51:39;;;;;;;13.65;5.40;;;14.20;99.90;;;;;;4994867;28;20050;-83
2022/08/09 05:54:04;;;;;;;15.05;5.85;;;14.20;99.90;;;;;;5012003;28;20046;-83
2022/08/09 05:56:30;;;;;;;12.52;5.13;;;14.30;99.90;;;;;;4993993;28;20033;-84
2022/08/09 05:58:58;;;;;;;11.73;4.97;;;14.30;99.90;;;;;;4994430;28;20137;-83
2022/08/09 06:01:28;;;;;;;10.63;4.80;;;14.40;99.90;;;;;;5010531;28;20390;-83
2022/08/09 06:03:58;;;;;;;13.30;4.70;;;14.40;99.90;;;;;;5000232;28;20146;-83
2022/08/09 06:06:23;;;;;;;11.70;5.10;;;14.90;99.90;;;;;;4976042;28;20066;-82
2022/08/09 06:08:50;;;;;;;13.38;5.50;;;14.80;99.90;;;;;;4974336;28;20498;-84
2022/08/09 06:11:15;;;;;;;11.82;5.53;;;14.60;99.90;;;;;;4992226;28;20049;-84
2022/08/09 06:13:41;;;;;;;11.90;5.00;;;14.60;99.90;;;;;;4992940;28;20105;-84
2022/08/09 06:16:07;;;;;;;10.98;4.72;;;15.00;99.90;;;;;;4991274;28;20157;-84
2022/08/09 06:18:33;;;;;;;13.98;5.45;;;14.70;99.90;;;;;;4992473;28;20047;-84
2022/08/09 06:21:00;;;;;;;10.93;4.72;;;15.00;99.90;;;;;;5011065;28;20057;-83
2022/08/09 06:23:27;;;;;;;11.63;5.05;;;14.90;99.90;;;;;;5011189;28;20056;-85
2022/08/09 06:25:53;;;;;;;12.50;5.10;;;15.20;99.90;;;;;;5011868;28;20113;-84
2022/08/09 06:28:18;;;;;;;13.13;5.32;;;15.00;99.90;;;;;;4995016;28;20529;-84
2022/08/09 06:30:44;;;;;;;11.45;4.68;;;15.00;99.90;;;;;;4999482;28;20140;-84
2022/08/09 06:33:10;;;;;;;11.32;5.32;;;15.10;99.90;;;;;;5035166;28;20046;-83
2022/08/09 06:35:36;;;;;;;12.73;5.35;;;15.10;99.90;;;;;;5035304;28;20053;-82
2022/08/09 06:38:02;;;;;;;12.15;4.90;;;15.10;99.90;;;;;;5034322;28;20424;-83
2022/08/09 06:40:28;;;;;;;12.45;5.25;;;15.10;99.90;;;;;;5035531;28;20038;-82
2022/08/09 06:42:54;;;;;;;12.40;4.95;;;15.20;99.90;;;;;;5034409;28;20512;-82
2022/08/09 06:45:20;;;;;;;12.93;5.18;;;15.30;99.90;;;;;;5016653;28;20497;-83
2022/08/09 06:47:47;;;;;;;11.38;4.97;;;15.40;99.90;;;;;;5034653;28;20052;-83
2022/08/09 06:50:14;;;;;;;11.35;5.03;;;15.50;99.90;;;;;;5017145;28;20168;-83
2022/08/09 06:52:44;;;;;;;11.20;4.90;;;15.70;99.90;;;;;;5016707;28;20068;-83
2022/08/09 06:55:14;;;;;;;12.55;5.22;;;15.70;99.90;;;;;;5017349;28;20049;-81
2022/08/09 06:57:40;;;;;;;11.93;5.18;;;15.90;99.90;;;;;;5017062;28;20132;-81
2022/08/09 07:00:07;;;;;;;11.75;5.18;;;16.50;99.90;;;;;;5016346;28;20128;-80
2022/08/09 07:02:33;;;;;;;12.38;5.15;;;16.10;99.90;;;;;;5017365;28;20049;-79
2022/08/09 07:04:59;;;;;;;10.20;4.47;;;16.20;99.90;;;;;;5016500;28;20038;-81
2022/08/09 07:07:25;;;;;;;13.57;4.68;;;16.70;99.90;;;;;;5016860;28;20092;-81
2022/08/09 07:09:51;;;;;;;11.35;4.70;;;16.50;99.90;;;;;;5031276;28;20037;-86
2022/08/09 07:12:16;;;;;;;10.20;4.40;;;16.70;99.90;;;;;;5021519;28;20022;-85
2022/08/09 07:14:42;;;;;;;9.13;4.05;;;17.20;99.90;;;;;;5044935;28;20087;-85
2022/08/09 07:17:07;;;;;;;9.75;4.25;;;17.10;99.90;;;;;;5027965;28;20138;-85
2022/08/09 07:19:33;;;;;;;10.05;4.10;;;17.20;99.90;;;;;;5011159;28;20056;-85
2022/08/09 07:21:59;;;;;;;10.10;3.20;;;17.30;99.90;;;;;;5006656;28;20045;-86
2022/08/09 07:24:27;;;;;;;10.10;3.25;;;17.50;99.90;;;;;;5006799;28;20034;-86
2022/08/09 07:26:53;;;;;;;8.57;2.90;;;17.60;99.90;;;;;;5004152;28;20038;-85
2022/08/09 07:29:19;;;;;;;7.22;2.70;;;17.70;99.90;;;;;;5024965;28;20049;-86
2022/08/09 07:31:44;;;;;;;7.40;2.58;;;17.90;99.90;;;;;;5005345;28;20399;-86
2022/08/09 07:34:10;;;;;;;8.32;2.85;;;18.60;99.90;;;;;;5003123;28;20056;-85
2022/08/09 07:36:36;;;;;;;7.45;2.60;;;18.50;99.90;;;;;;5004275;28;20363;-83
2022/08/09 07:39:02;;;;;;;8.25;3.35;;;18.20;99.90;;;;;;5009195;28;20088;-85
2022/08/09 07:41:28;;;;;;;8.13;2.80;;;18.20;99.90;;;;;;5023964;28;20041;-83
2022/08/09 07:43:54;;;;;;;9.55;3.28;;;18.30;99.90;;;;;;5019310;23;20053;-84
2022/08/09 07:46:19;;;;;;;9.70;3.10;;;18.40;99.90;;;;;;4993464;28;20057;-84
2022/08/09 07:48:46;;;;;;;7.38;2.92;;;18.40;99.90;;;;;;4975800;28;20069;-84
2022/08/09 07:51:12;;;;;;;9.60;3.17;;;18.70;99.90;;;;;;4994287;28;20091;-84
2022/08/09 07:53:38;;;;;;;7.97;2.60;;;18.70;99.90;;;;;;4960507;28;20050;-84
2022/08/09 07:56:04;;;;;;;8.32;2.90;;;18.90;99.90;;;;;;4993785;28;20117;-82
2022/08/09 07:58:29;;;;;;;7.93;2.67;;;18.80;99.90;;;;;;4994561;28;20050;-82
2022/08/09 08:00:55;;;;;;;8.38;2.65;;;19.20;99.90;;;;;;4993836;28;20050;-82
2022/08/09 08:03:20;;;;;;;10.52;3.05;;;19.30;99.90;;;;;;4976397;28;20449;-82
2022/08/09 08:05:47;;;;;;;7.43;2.30;;;19.30;99.90;;;;;;4993743;28;20042;-82
2022/08/09 08:08:13;;;;;;;7.88;2.53;;;19.40;99.90;;;;;;4976892;28;20050;-82
2022/08/09 08:10:38;;;;;;;9.18;2.92;;;19.50;99.90;;;;;;4993773;28;20507;-82
2022/08/09 08:13:04;;;;;;;7.53;2.40;;;19.70;99.90;;;;;;4975881;28;20482;-82
2022/08/09 08:15:30;;;;;;;7.50;2.50;;;19.50;99.90;;;;;;4975814;28;20100;-82
2022/08/09 08:17:55;;;;;;;6.72;2.53;;;19.60;99.90;;;;;;4993643;28;20062;-82
2022/08/09 08:20:25;;;;;;;6.22;2.28;;;19.80;99.90;;;;;;4993825;28;20104;-82
2022/08/09 08:22:51;;;;;;;7.70;2.17;;;19.80;99.90;;;;;;4975483;28;20042;-83
2022/08/09 08:25:17;;;;;;;7.75;2.53;;;19.80;99.90;;;;;;4993814;28;20049;-82
2022/08/09 08:27:42;;;;;;;7.28;2.38;;;19.80;99.90;;;;;;4972278;28;20073;-81
2022/08/09 08:30:10;;;;;;;6.80;2.20;;;20.00;99.90;;;;;;4987158;28;20057;-81
2022/08/09 08:32:35;;;;;;;7.13;2.30;;;20.20;99.90;;;;;;4975998;28;20097;-82
2022/08/09 08:35:01;;;;;;;10.25;3.03;;;20.30;99.90;;;;;;4972445;28;20046;-82
2022/08/09 08:37:27;;;;;;;7.57;2.40;;;20.60;99.90;;;;;;4977780;28;20454;-81
2022/08/09 08:39:53;;;;;;;6.22;2.22;;;20.50;99.90;;;;;;4956715;28;20065;-80
2022/08/09 08:42:20;;;;;;;8.27;2.20;;;20.50;99.90;;;;;;4956623;28;20058;-81
2022/08/09 08:44:50;;;;;;;5.97;2.10;;;20.70;99.90;;;;;;4958054;28;20116;-78
2022/08/09 08:47:16;;;;;;;5.57;2.00;;;20.80;99.90;;;;;;4966652;28;20133;-79
2022/08/09 08:49:42;;;;;;;5.88;1.90;;;20.80;99.90;;;;;;4982326;28;20114;-78
2022/08/09 08:52:08;;;;;;;7.88;2.13;;;20.90;99.90;;;;;;4965019;28;20042;-79
2022/08/09 08:54:34;;;;;;;6.10;1.85;;;21.00;99.90;;;;;;5020531;22;20448;-80
2022/08/09 08:57:01;;;;;;;6.13;1.88;;;21.00;99.90;;;;;;4997950;28;20053;-82
2022/08/09 08:59:27;;;;;;;4.47;1.60;;;21.10;99.90;;;;;;5032216;28;20116;-81
2022/08/09 09:01:53;;;;;;;5.00;1.90;;;21.10;99.90;;;;;;5032002;28;20164;-82
2022/08/09 09:04:20;;;;;;;7.55;1.95;;;21.20;99.90;;;;;;5014847;28;20080;-82
2022/08/09 09:06:48;;;;;;;4.55;1.70;;;21.30;99.90;;;;;;5014274;28;20041;-82
2022/08/09 09:09:15;;;;;;;4.47;1.80;;;21.30;99.90;;;;;;5032577;28;20041;-83
2022/08/09 09:11:42;;;;;;;6.47;1.90;;;21.50;99.90;;;;;;5031262;28;20096;-82
2022/08/09 09:14:22;;;;;;;7.05;2.00;;;21.70;99.90;;;;;;5014852;28;20068;-82
2022/08/09 09:16:48;;;;;;;5.07;1.90;;;21.50;99.90;;;;;;5032288;28;20436;-83
2022/08/09 09:19:14;;;;;;;7.00;1.80;;;22.00;99.90;;;;;;5031597;28;20099;-82
2022/08/09 09:22:05;;;;;;;6.45;2.10;;;21.60;99.90;;;;;;5015068;28;20504;-81
2022/08/09 09:24:34;;;;;;;4.65;1.88;;;21.70;99.90;;;;;;5014624;28;20045;-81
2022/08/09 09:27:02;;;;;;;6.85;1.95;;;22.00;99.90;;;;;;5014020;28;20057;-81
2022/08/09 09:29:42;;;;;;;7.78;2.20;;;22.10;99.90;;;;;;5032634;28;20037;-82
2022/08/09 09:32:09;;;;;;;5.10;1.80;;;21.90;99.90;;;;;;5031960;28;20047;-81
2022/08/09 09:34:35;;;;;;;4.82;1.88;;;22.10;99.90;;;;;;5013911;28;20045;-81
2022/08/09 09:37:04;;;;;;;4.90;1.70;;;22.00;99.90;;;;;;5014397;28;20045;-81
2022/08/09 09:39:30;;;;;;;5.30;1.60;;;22.00;99.90;;;;;;5014384;28;20084;-83
2022/08/09 09:41:57;;;;;;;4.88;1.90;;;22.10;99.90;;;;;;5014264;28;20077;-83
2022/08/09 09:44:25;;;;;;;5.18;1.80;;;22.10;99.90;;;;;;5014443;28;20049;-84
2022/08/09 09:47:08;;;;;;;4.35;1.67;;;22.30;99.90;;;;;;5013339;28;20092;-84
2022/08/09 09:49:36;;;;;;;5.53;1.70;;;22.50;99.90;;;;;;5014456;28;20049;-85
2022/08/09 09:52:04;;;;;;;4.82;1.75;;;22.50;99.90;;;;;;5031545;28;20037;-85
2022/08/09 09:54:48;;;;;;;4.50;1.70;;;22.60;99.90;;;;;;5013815;28;20061;-85
2022/08/09 09:57:19;;;;;;;6.13;2.15;;;22.80;99.90;;;;;;5010742;28;20484;-85
2022/08/09 09:59:46;;;;;;;5.38;1.98;;;22.80;99.90;;;;;;5013612;28;20049;-86
2022/08/09 10:02:13;;;;;;;4.50;1.88;;;22.90;99.90;;;;;;5014020;28;20104;-86
2022/08/09 10:04:40;;;;;;;8.82;2.03;;;23.00;99.90;;;;;;5032168;28;20104;-83
2022/08/09 10:07:27;;;;;;;8.10;1.90;;;23.20;99.90;;;;;;5033715;28;20094;-82
2022/08/09 10:09:54;;;;;;;6.53;1.83;;;23.40;99.90;;;;;;5026085;28;20485;-82
2022/08/09 10:12:26;;;;;;;4.20;1.70;;;23.80;99.90;;;;;;5015061;28;20049;-82
2022/08/09 10:15:09;;;;;;;5.57;1.85;;;23.80;99.90;;;;;;4997755;28;20053;-82
2022/08/09 10:17:36;;;;;;;6.22;1.77;;;23.60;99.90;;;;;;5003705;28;20099;-81
2022/08/09 10:20:07;;;;;;;4.82;1.73;;;23.20;99.90;;;;;;5008885;28;20041;-84
2022/08/09 10:22:35;;;;;;;5.97;1.90;;;23.10;99.90;;;;;;5017503;28;20049;-82
2022/08/09 10:25:04;;;;;;;5.50;1.58;;;23.30;99.90;;;;;;5017843;28;20053;-82
2022/08/09 10:27:31;;;;;;;2.97;1.40;;;23.50;99.90;;;;;;5035442;28;20049;-82
2022/08/09 10:30:00;;;;;;;4.15;1.60;;;23.70;99.90;;;;;;5046735;28;20048;-83
2022/08/09 10:32:26;;;;;;;3.95;1.58;;;24.00;99.90;;;;;;5037541;28;20041;-86
2022/08/09 10:34:53;;;;;;;5.25;1.70;;;24.20;99.90;;;;;;5055275;28;20041;-86
2022/08/09 10:37:20;;;;;;;3.17;1.60;;;24.50;99.90;;;;;;5036947;28;20121;-86
2022/08/09 10:39:46;;;;;;;4.10;1.60;;;24.60;99.90;;;;;;5054799;28;20099;-86
2022/08/09 10:42:14;;;;;;;4.22;1.67;;;24.60;99.90;;;;;;5025715;28;20037;-86
2022/08/09 10:45:01;;;;;;;4.75;1.60;;;24.60;99.90;;;;;;5041340;28;20069;-86
2022/08/09 10:47:59;;;;;;;4.43;1.60;;;24.70;99.90;;;;;;5042784;28;20057;-86
2022/08/09 10:51:08;;;;;;;4.15;1.60;;;24.90;99.90;;;;;;5017684;28;20053;-88
2022/08/09 10:53:59;;;;;;;3.75;1.50;;;25.00;99.90;;;;;;5018343;28;20057;-88
2022/08/09 10:56:28;;;;;;;4.53;1.70;;;25.00;99.90;;;;;;5019257;28;20045;-90
2022/08/09 10:58:57;;;;;;;5.43;2.00;;;25.10;99.90;;;;;;5039019;28;20049;-91
2022/08/09 11:01:32;;;;;;;4.20;1.67;;;25.00;99.90;;;;;;5035408;28;20539;-90
2022/08/09 11:04:14;;;;;;;5.25;1.90;;;24.90;99.90;;;;;;5016805;28;20045;-88
2022/08/09 11:06:44;;;;;;;3.53;1.50;;;24.80;99.90;;;;;;5034753;28;20072;-85
2022/08/09 11:09:14;;;;;;;3.80;1.50;;;24.90;99.90;;;;;;5034782;28;20041;-84
2022/08/09 11:11:59;;;;;;;6.40;1.70;;;25.10;99.90;;;;;;5018446;28;20080;-85
2022/08/09 11:14:34;;;;;;;3.70;1.48;;;25.50;99.00;;;;;;5052661;28;20056;-85
2022/08/09 11:17:19;;;;;;;5.07;1.60;;;25.70;99.20;;;;;;5045374;28;20099;-82
2022/08/09 11:20:07;;;;;;;4.00;1.63;;;25.80;98.20;;;;;;5019535;28;20045;-84
2022/08/09 11:22:39;;;;;;;3.83;1.50;;;26.00;97.00;;;;;;5043955;28;20063;-85
2022/08/09 11:25:26;;;;;;;5.38;1.60;;;26.00;97.60;;;;;;5020983;28;20084;-89
2022/08/09 11:27:54;;;;;;;3.65;1.58;;;26.00;98.10;;;;;;5018886;28;20049;-86
2022/08/09 11:30:22;;;;;;;4.70;1.60;;;26.20;97.60;;;;;;5034553;28;20052;-81
2022/08/09 11:33:09;;;;;;;3.95;1.50;;;26.50;97.30;;;;;;5020779;28;20401;-88
2022/08/09 11:35:41;;;;;;;5.25;1.80;;;26.60;96.10;;;;;;5042441;28;20128;-88
2022/08/09 11:38:18;;;;;;;3.90;1.50;;;26.70;96.00;;;;;;5040025;28;20033;-88
2022/08/09 11:40:44;;;;;;;2.80;1.42;;;26.60;95.20;;;;;;5041883;28;20519;-88
2022/08/09 11:43:15;;;;;;;2.88;1.35;;;26.60;95.20;;;;;;5049704;28;20044;-89
2022/08/09 11:45:56;;;;;;;3.58;1.40;;;26.70;94.20;;;;;;5026795;28;20040;-88
2022/08/09 11:48:23;;;;;;;2.22;1.40;;;26.90;94.60;;;;;;5025335;28;20044;-88
2022/08/09 11:51:07;;;;;;;3.97;1.40;;;26.90;93.80;;;;;;5022753;28;20375;-90
2022/08/09 11:53:35;;;;;;;3.83;1.50;;;26.90;92.60;;;;;;5025926;28;20052;-87
2022/08/09 11:56:13;;;;;;;3.92;1.65;;;26.90;93.00;;;;;;5033455;28;20045;-89
2022/08/09 11:58:52;;;;;;;4.53;1.67;;;27.00;92.60;;;;;;5035974;28;20123;-89
2022/08/09 12:01:29;;;;;;;4.05;1.55;;;27.00;93.20;;;;;;5053417;28;20045;-89
2022/08/09 12:03:59;;;;;;;4.18;1.50;;;27.10;93.50;;;;;;5053806;28;20053;-90
2022/08/09 12:06:27;;;;;;;5.25;1.52;;;27.30;92.40;;;;;;5035520;28;20496;-90
2022/08/09 12:08:55;;;;;;;4.43;1.58;;;27.50;93.00;;;;;;5035281;28;20045;-89
2022/08/09 12:11:24;;;;;;;2.53;1.40;;;27.60;92.40;;;;;;5035661;28;20085;-88
2022/08/09 12:13:52;;;;;;;4.47;1.48;;;27.50;92.10;;;;;;5035140;28;20575;-89
2022/08/09 12:16:24;;;;;;;3.47;1.40;;;27.60;92.10;;;;;;5035270;28;20099;-89
2022/08/09 12:18:52;;;;;;;4.15;1.55;;;27.60;90.50;;;;;;5035482;28;20041;-89
2022/08/09 12:21:36;;;;;;;3.25;1.45;;;27.50;91.00;;;;;;5034941;28;20049;-90
2022/08/09 12:24:05;;;;;;;3.47;1.50;;;27.80;90.30;;;;;;5035091;28;20047;-89
2022/08/09 12:27:00;;;;;;;3.97;1.60;;;27.70;90.80;;;;;;5035251;28;20087;-89
2022/08/09 12:29:30;;;;;;;4.00;1.60;;;28.00;90.70;;;;;;5046027;28;20042;-88
2022/08/09 12:32:07;;;;;;;4.68;1.70;;;28.00;90.50;;;;;;5033219;28;20047;-89
2022/08/09 12:34:42;;;;;;;3.30;1.50;;;28.00;88.20;;;;;;5032976;28;20088;-88
2022/08/09 12:37:10;;;;;;;3.60;1.50;;;28.10;88.80;;;;;;5014916;28;20037;-88
2022/08/09 12:39:36;;;;;;;3.47;1.50;;;28.20;90.10;;;;;;5033273;28;20042;-88
2022/08/09 12:42:13;;;;;;;3.85;1.60;;;28.30;90.10;;;;;;5033331;28;20045;-88
2022/08/09 12:44:40;;;;;;;3.42;1.40;;;28.40;86.20;;;;;;5033567;28;20048;-88
2022/08/09 12:47:06;;;;;;;3.83;1.60;;;28.50;89.00;;;;;;5027882;28;20061;-89
2022/08/09 12:49:34;;;;;;;2.78;1.40;;;28.30;88.30;;;;;;5045798;28;20038;-89